createdAt,value
2023-04-22T00:01:13.313Z,41.36
2023-04-22T00:03:42.846Z,41.24
2023-04-22T00:06:09.815Z,41.07
2023-04-22T00:08:36.731Z,41.10
2023-04-22T00:11:03.922Z,41.57
2023-04-22T00:13:30.852Z,41.56
2023-04-22T00:15:58.049Z,41.63
2023-04-22T00:18:24.918Z,41.49
2023-04-22T00:20:51.993Z,41.34
2023-04-22T00:23:19.472Z,41.56
2023-04-22T00:25:48.994Z,41.81
2023-04-22T00:28:15.946Z,41.84
2023-04-22T00:30:42.798Z,41.89
2023-04-22T00:33:09.935Z,41.96
2023-04-22T00:35:36.771Z,42.17
2023-04-22T00:38:03.689Z,42.48
2023-04-22T00:40:30.655Z,42.92
2023-04-22T00:42:58.504Z,42.89
2023-04-22T00:45:27.193Z,42.94
2023-04-22T00:47:54.277Z,43.04
2023-04-22T00:50:21.294Z,43.14
2023-04-22T00:52:48.589Z,43.08
2023-04-22T00:55:16.342Z,43.21
2023-04-22T00:57:43.825Z,43.19
2023-04-22T01:00:10.992Z,43.10
2023-04-22T01:02:39.287Z,43.61
2023-04-22T01:05:06.716Z,43.64
2023-04-22T01:07:33.585Z,43.58
2023-04-22T01:10:01.044Z,43.51
2023-04-22T01:12:28.063Z,43.51
2023-04-22T01:14:55.050Z,43.82
2023-04-22T01:17:22.296Z,43.76
2023-04-22T01:19:49.207Z,43.70
2023-04-22T01:22:19.561Z,43.80
2023-04-22T01:24:46.634Z,44.00
2023-04-22T01:27:13.684Z,43.87
2023-04-22T01:29:40.782Z,43.86
2023-04-22T01:32:08.101Z,43.88
2023-04-22T01:34:35.088Z,43.54
2023-04-22T01:37:02.089Z,43.79
2023-04-22T01:39:30.106Z,43.97
2023-04-22T01:41:58.819Z,43.63
2023-04-22T01:44:26.179Z,43.62
2023-04-22T01:46:53.063Z,44.06
2023-04-22T01:49:19.995Z,43.75
2023-04-22T01:51:46.864Z,43.93
2023-04-22T01:54:14.252Z,44.27
2023-04-22T01:56:42.086Z,43.90
2023-04-22T01:59:09.460Z,44.04
2023-04-22T02:01:36.422Z,44.22
2023-04-22T02:04:07.282Z,44.22
2023-04-22T02:06:34.084Z,44.15
2023-04-22T02:09:00.936Z,44.23
2023-04-22T02:11:27.837Z,44.08
2023-04-22T02:13:54.667Z,44.38
2023-04-22T02:16:21.586Z,44.64
2023-04-22T02:18:48.464Z,44.47
2023-04-22T02:21:15.630Z,44.82
2023-04-22T02:23:42.485Z,44.63
2023-04-22T02:26:09.343Z,44.43
2023-04-22T02:28:36.478Z,44.72
2023-04-22T02:31:03.502Z,44.54
2023-04-22T02:33:30.455Z,44.82
2023-04-22T02:35:57.757Z,44.78
2023-04-22T02:38:24.712Z,45.12
2023-04-22T02:40:51.546Z,44.79
2023-04-22T02:43:18.653Z,45.11
2023-04-22T02:45:45.565Z,44.81
2023-04-22T02:48:12.472Z,45.17
2023-04-22T02:50:39.362Z,44.81
2023-04-22T02:53:06.673Z,45.06
2023-04-22T02:55:33.524Z,45.03
2023-04-22T02:58:00.508Z,45.46
2023-04-22T03:00:27.521Z,45.30
2023-04-22T03:02:54.509Z,45.23
2023-04-22T03:05:21.512Z,44.96
2023-04-22T03:07:49.613Z,45.29
2023-04-22T03:10:16.648Z,45.42
2023-04-22T03:12:43.493Z,45.15
2023-04-22T03:15:11.054Z,45.29
2023-04-22T03:17:38.013Z,45.11
2023-04-22T03:20:05.559Z,45.52
2023-04-22T03:22:32.642Z,45.35
2023-04-22T03:24:59.459Z,45.07
2023-04-22T03:27:26.472Z,45.14
2023-04-22T03:29:53.352Z,45.58
2023-04-22T03:32:20.273Z,45.15
2023-04-22T03:34:47.461Z,45.62
2023-04-22T03:37:14.357Z,45.38
2023-04-22T03:39:41.802Z,45.36
2023-04-22T03:42:08.914Z,45.51
2023-04-22T03:44:36.112Z,45.62
2023-04-22T03:47:03.047Z,45.60
2023-04-22T03:49:30.657Z,45.23
2023-04-22T03:51:57.422Z,45.33
2023-04-22T03:54:24.528Z,45.52
2023-04-22T03:56:51.394Z,45.84
2023-04-22T03:59:18.870Z,45.82
2023-04-22T04:01:47.274Z,45.62
2023-04-22T04:04:14.405Z,45.56
2023-04-22T04:06:44.520Z,45.37
2023-04-22T04:09:11.459Z,45.60
2023-04-22T04:11:38.405Z,45.60
2023-04-22T04:14:05.302Z,45.58
2023-04-22T04:16:35.299Z,45.55
2023-04-22T04:19:02.262Z,45.53
2023-04-22T04:21:29.699Z,45.42
2023-04-22T04:23:56.636Z,45.63
2023-04-22T04:26:27.821Z,45.84
2023-04-22T04:28:54.794Z,45.58
2023-04-22T04:31:21.844Z,45.51
2023-04-22T04:33:48.704Z,45.38
2023-04-22T04:36:15.666Z,45.74
2023-04-22T04:38:42.556Z,45.90
2023-04-22T04:41:10.154Z,45.43
2023-04-22T04:43:37.035Z,45.87
2023-04-22T04:46:04.017Z,45.63
2023-04-22T04:48:31.034Z,45.84
2023-04-22T04:50:59.268Z,45.50
2023-04-22T04:53:26.290Z,45.72
2023-04-22T04:55:53.165Z,45.91
2023-04-22T04:58:20.110Z,45.50
2023-04-22T05:00:47.516Z,45.75
2023-04-22T05:03:14.599Z,45.76
2023-04-22T05:05:41.623Z,45.67
2023-04-22T05:08:08.643Z,45.53
2023-04-22T05:10:35.541Z,45.53
2023-04-22T05:13:04.123Z,45.72
2023-04-22T05:15:31.474Z,45.62
2023-04-22T05:17:58.440Z,45.70
2023-04-22T05:20:25.544Z,45.65
2023-04-22T05:22:52.418Z,45.54
2023-04-22T05:25:19.348Z,45.80
2023-04-22T05:27:46.137Z,45.53
2023-04-22T05:30:12.991Z,45.89
2023-04-22T05:32:39.847Z,45.88
2023-04-22T05:35:07.101Z,45.55
2023-04-22T05:37:34.082Z,45.89
2023-04-22T05:40:01.014Z,45.51
2023-04-22T05:42:27.834Z,45.54
2023-04-22T05:44:54.636Z,45.48
2023-04-22T05:47:21.709Z,45.73
2023-04-22T05:49:48.577Z,46.02
2023-04-22T05:52:15.482Z,46.20
2023-04-22T05:54:42.330Z,45.96
2023-04-22T05:57:09.289Z,45.91
2023-04-22T05:59:36.646Z,46.16
2023-04-22T06:02:03.680Z,46.51
2023-04-22T06:04:32.402Z,46.63
2023-04-22T06:07:00.607Z,46.71
2023-04-22T06:09:27.778Z,47.15
2023-04-22T06:11:57.733Z,46.73
2023-04-22T06:14:25.496Z,46.52
2023-04-22T06:16:53.647Z,46.65
2023-04-22T06:19:20.592Z,46.50
2023-04-22T06:21:47.413Z,46.64
2023-04-22T06:24:14.393Z,46.75
2023-04-22T06:26:41.487Z,46.47
2023-04-22T06:29:08.381Z,46.06
2023-04-22T06:31:35.474Z,46.09
2023-04-22T06:34:02.504Z,46.03
2023-04-22T06:36:30.638Z,45.76
2023-04-22T06:38:57.847Z,45.51
2023-04-22T06:41:26.184Z,45.60
2023-04-22T06:43:53.058Z,45.28
2023-04-22T06:46:20.051Z,45.25
2023-04-22T06:48:47.243Z,44.97
2023-04-22T06:51:16.503Z,44.88
2023-04-22T06:53:43.372Z,44.71
2023-04-22T06:56:10.744Z,44.57
2023-04-22T06:58:37.885Z,44.48
2023-04-22T07:01:04.832Z,44.40
2023-04-22T07:03:32.037Z,44.77
2023-04-22T07:05:59.136Z,44.35
2023-04-22T07:08:26.005Z,44.63
2023-04-22T07:10:53.152Z,44.64
2023-04-22T07:13:20.069Z,44.34
2023-04-22T07:15:46.948Z,43.95
2023-04-22T07:18:13.871Z,44.00
2023-04-22T07:20:41.132Z,44.07
2023-04-22T07:23:08.051Z,43.87
2023-04-22T07:25:37.910Z,43.97
2023-04-22T07:28:04.828Z,43.78
2023-04-22T07:30:31.758Z,44.05
2023-04-22T07:32:58.692Z,44.05
2023-04-22T07:35:26.015Z,43.47
2023-04-22T07:37:53.047Z,43.63
2023-04-22T07:40:20.011Z,43.47
2023-04-22T07:42:47.074Z,43.77
2023-04-22T07:45:13.950Z,43.47
2023-04-22T07:47:41.150Z,43.48
2023-04-22T07:50:08.487Z,43.65
2023-04-22T07:52:35.454Z,44.17
2023-04-22T07:55:02.653Z,43.71
2023-04-22T07:57:29.535Z,44.17
2023-04-22T07:59:56.444Z,43.51
2023-04-22T08:02:23.598Z,42.95
2023-04-22T08:04:50.757Z,39.61
2023-04-22T08:07:32.541Z,38.96
2023-04-22T08:09:59.920Z,39.08
2023-04-22T08:12:26.978Z,40.15
2023-04-22T08:14:54.482Z,40.49
2023-04-22T08:17:22.665Z,41.11
2023-04-22T08:19:49.959Z,42.05
2023-04-22T08:22:18.209Z,41.97
2023-04-22T08:24:45.392Z,41.91
2023-04-22T08:27:12.732Z,41.65
2023-04-22T08:29:40.010Z,42.11
2023-04-22T08:32:07.171Z,41.89
2023-04-22T08:34:34.156Z,42.56
2023-04-22T08:37:01.155Z,42.69
2023-04-22T08:39:28.549Z,42.42
2023-04-22T08:41:56.614Z,42.55
2023-04-22T08:44:23.667Z,43.01
2023-04-22T08:46:52.107Z,42.65
2023-04-22T08:49:19.728Z,43.09
2023-04-22T08:51:52.880Z,42.67
2023-04-22T08:54:19.997Z,42.65
2023-04-22T08:56:47.282Z,43.03
2023-04-22T08:59:14.881Z,42.84
2023-04-22T09:01:42.529Z,43.10
2023-04-22T09:04:11.888Z,42.96
2023-04-22T09:06:39.445Z,42.51
2023-04-22T09:09:06.703Z,42.70
2023-04-22T09:11:34.206Z,42.65
2023-04-22T09:14:01.424Z,42.36
2023-04-22T09:16:30.571Z,42.30
2023-04-22T09:18:57.659Z,42.15
2023-04-22T09:21:26.865Z,42.16
2023-04-22T09:23:54.711Z,42.07
2023-04-22T09:26:22.826Z,42.29
2023-04-22T09:28:51.116Z,42.14
2023-04-22T09:31:21.661Z,42.11
2023-04-22T09:33:50.412Z,41.77
2023-04-22T09:36:17.422Z,41.59
2023-04-22T09:38:54.500Z,41.78
2023-04-22T09:41:31.107Z,41.65
2023-04-22T09:43:59.057Z,41.39
2023-04-22T09:46:26.985Z,41.16
2023-04-22T09:48:55.935Z,41.24
2023-04-22T09:51:23.443Z,41.08
2023-04-22T09:54:00.222Z,40.58
2023-04-22T09:56:36.846Z,40.50
2023-04-22T09:59:04.636Z,40.76
2023-04-22T10:01:42.441Z,40.73
2023-04-22T10:04:12.066Z,40.43
2023-04-22T10:06:39.071Z,40.52
2023-04-22T10:09:08.274Z,40.59
2023-04-22T10:11:36.660Z,40.15
2023-04-22T10:14:07.083Z,40.58
2023-04-22T10:16:36.072Z,40.51
2023-04-22T10:19:05.211Z,40.47
2023-04-22T10:21:32.939Z,40.23
2023-04-22T10:24:00.959Z,40.19
2023-04-22T10:26:37.971Z,40.24
2023-04-22T10:29:08.022Z,39.72
2023-04-22T10:31:35.418Z,40.18
2023-04-22T10:34:10.024Z,40.17
2023-04-22T10:36:52.619Z,40.16
2023-04-22T10:39:22.438Z,40.22
2023-04-22T10:42:02.741Z,40.65
2023-04-22T10:44:31.258Z,40.49
2023-04-22T10:46:59.317Z,40.71
2023-04-22T10:49:27.414Z,40.50
2023-04-22T10:51:56.415Z,40.63
2023-04-22T10:54:30.566Z,40.49
2023-04-22T10:57:05.918Z,40.96
2023-04-22T10:59:33.686Z,41.12
2023-04-22T11:02:02.799Z,41.06
2023-04-22T11:04:30.292Z,40.61
2023-04-22T11:07:06.626Z,40.81
2023-04-22T11:09:34.225Z,40.64
2023-04-22T11:12:10.750Z,40.41
2023-04-22T11:14:37.749Z,40.36
2023-04-22T11:17:04.792Z,39.39
2023-04-22T11:19:32.013Z,39.67
2023-04-22T11:21:59.107Z,39.70
2023-04-22T11:24:26.061Z,39.49
2023-04-22T11:26:57.330Z,39.76
2023-04-22T11:29:24.535Z,39.62
2023-04-22T11:31:51.626Z,39.39
2023-04-22T11:34:19.029Z,34.33
2023-04-22T11:36:46.431Z,32.38
2023-04-22T11:39:15.725Z,32.24
2023-04-22T11:41:43.185Z,31.92
2023-04-22T11:44:10.394Z,31.81
2023-04-22T11:46:40.585Z,31.12
2023-04-22T11:49:15.219Z,31.59
2023-04-22T11:51:51.495Z,31.81
2023-04-22T11:54:18.649Z,32.03
2023-04-22T11:56:48.924Z,31.98
2023-04-22T11:59:18.354Z,31.65
2023-04-22T12:01:47.420Z,31.56
2023-04-22T12:04:15.263Z,31.71
2023-04-22T12:06:43.003Z,31.74
2023-04-22T12:09:12.056Z,31.61
2023-04-22T12:11:40.886Z,31.76
2023-04-22T12:14:08.655Z,31.47
2023-04-22T12:16:43.559Z,31.73
2023-04-22T12:19:11.567Z,32.19
2023-04-22T12:21:38.673Z,32.55
2023-04-22T12:24:12.188Z,33.18
2023-04-22T12:26:39.435Z,33.33
2023-04-22T12:29:06.557Z,33.26
2023-04-22T12:31:33.720Z,33.70
2023-04-22T12:34:01.019Z,33.64
2023-04-22T12:36:28.093Z,33.76
2023-04-22T12:38:55.254Z,34.29
2023-04-22T12:41:24.047Z,34.14
2023-04-22T12:43:51.176Z,35.09
2023-04-22T12:46:18.325Z,36.09
2023-04-22T12:48:45.476Z,35.80
2023-04-22T12:51:12.761Z,35.16
2023-04-22T12:53:42.912Z,35.19
2023-04-22T12:56:10.305Z,35.37
2023-04-22T12:58:37.285Z,35.05
2023-04-22T13:01:06.984Z,35.65
2023-04-22T13:03:34.153Z,36.82
2023-04-22T13:06:02.698Z,35.68
2023-04-22T13:08:30.469Z,35.98
2023-04-22T13:10:57.452Z,35.75
2023-04-22T13:13:24.581Z,36.21
2023-04-22T13:15:54.075Z,36.24
2023-04-22T13:18:22.363Z,36.73
2023-04-22T13:20:49.354Z,36.72
2023-04-22T13:23:17.547Z,36.48
2023-04-22T13:25:44.917Z,36.71
2023-04-22T13:28:12.096Z,36.17
2023-04-22T13:30:39.974Z,36.10
2023-04-22T13:33:07.394Z,36.15
2023-04-22T13:35:34.582Z,36.24
2023-04-22T13:38:01.996Z,36.01
2023-04-22T13:40:29.319Z,36.05
2023-04-22T13:42:56.492Z,35.79
2023-04-22T13:45:23.490Z,36.37
2023-04-22T13:47:50.588Z,35.93
2023-04-22T13:50:17.639Z,36.02
2023-04-22T13:52:45.316Z,36.10
2023-04-22T13:55:12.501Z,35.83
2023-04-22T13:57:39.504Z,35.50
2023-04-22T14:00:06.914Z,35.90
2023-04-22T14:02:34.185Z,35.72
2023-04-22T14:05:01.742Z,36.07
2023-04-22T14:07:28.856Z,36.01
2023-04-22T14:09:55.982Z,35.86
2023-04-22T14:12:22.939Z,36.05
2023-04-22T14:14:49.958Z,36.08
2023-04-22T14:17:18.614Z,35.92
2023-04-22T14:19:45.623Z,36.09
2023-04-22T14:22:12.657Z,35.79
2023-04-22T14:24:39.753Z,35.82
2023-04-22T14:27:06.737Z,35.87
2023-04-22T14:29:33.863Z,35.87
2023-04-22T14:32:01.590Z,35.99
2023-04-22T14:34:28.620Z,36.42
2023-04-22T14:36:55.683Z,36.16
2023-04-22T14:39:22.712Z,36.34
2023-04-22T14:41:49.741Z,36.50
2023-04-22T14:44:16.747Z,36.40
2023-04-22T14:46:43.682Z,36.63
2023-04-22T14:49:10.696Z,36.34
2023-04-22T14:51:37.620Z,36.50
2023-04-22T14:54:04.760Z,36.26
2023-04-22T14:56:31.941Z,36.42
2023-04-22T14:58:58.936Z,36.61
2023-04-22T15:01:26.252Z,36.88
2023-04-22T15:03:53.498Z,36.82
2023-04-22T15:06:21.156Z,36.88
2023-04-22T15:08:48.643Z,36.92
2023-04-22T15:11:15.806Z,36.41
2023-04-22T15:13:42.747Z,36.38
2023-04-22T15:16:10.103Z,36.47
2023-04-22T15:18:39.334Z,36.69
2023-04-22T15:21:10.566Z,36.61
2023-04-22T15:23:37.513Z,36.72
2023-04-22T15:26:04.455Z,37.18
2023-04-22T15:28:31.436Z,37.17
2023-04-22T15:30:58.357Z,37.03
2023-04-22T15:33:25.348Z,36.75
2023-04-22T15:35:52.292Z,37.21
2023-04-22T15:38:19.672Z,36.86
2023-04-22T15:40:47.594Z,37.10
2023-04-22T15:43:14.521Z,37.01
2023-04-22T15:45:42.105Z,37.03
2023-04-22T15:48:09.168Z,37.45
2023-04-22T15:50:38.272Z,37.63
2023-04-22T15:53:08.956Z,37.42
2023-04-22T15:55:36.092Z,37.42
2023-04-22T15:58:03.200Z,37.89
2023-04-22T16:00:30.188Z,37.90
2023-04-22T16:02:57.298Z,37.63
2023-04-22T16:05:25.438Z,37.97
2023-04-22T16:07:53.544Z,37.71
2023-04-22T16:10:21.121Z,37.91
2023-04-22T16:12:48.362Z,37.94
2023-04-22T16:15:15.501Z,37.63
2023-04-22T16:17:43.903Z,37.91
2023-04-22T16:20:11.282Z,37.68
2023-04-22T16:22:47.248Z,37.71
2023-04-22T16:25:16.564Z,37.66
2023-04-22T16:27:55.561Z,37.51
2023-04-22T16:30:22.638Z,37.64
2023-04-22T16:32:53.122Z,37.29
2023-04-22T16:35:20.726Z,37.53
2023-04-22T16:37:47.762Z,37.82
2023-04-22T16:40:14.874Z,37.17
2023-04-22T16:42:41.934Z,37.32
2023-04-22T16:45:09.233Z,37.29
2023-04-22T16:47:36.610Z,37.49
2023-04-22T16:50:04.117Z,37.65
2023-04-22T16:52:34.818Z,37.15
2023-04-22T16:55:01.840Z,37.82
2023-04-22T16:57:28.938Z,38.00
2023-04-22T16:59:55.943Z,37.69
2023-04-22T17:02:23.055Z,37.61
2023-04-22T17:04:53.255Z,37.93
2023-04-22T17:07:20.344Z,37.73
2023-04-22T17:09:49.186Z,37.70
2023-04-22T17:12:16.417Z,37.72
2023-04-22T17:14:43.479Z,37.98
2023-04-22T17:17:10.538Z,38.34
2023-04-22T17:19:58.004Z,38.22
2023-04-22T17:22:25.267Z,38.35
2023-04-22T17:24:52.259Z,38.42
2023-04-22T17:27:23.940Z,38.35
2023-04-22T17:30:02.027Z,38.38
2023-04-22T17:32:29.086Z,37.96
2023-04-22T17:34:57.894Z,37.96
2023-04-22T17:37:25.485Z,38.04
2023-04-22T17:39:52.613Z,37.50
2023-04-22T17:42:19.660Z,37.07
2023-04-22T17:44:47.084Z,37.29
2023-04-22T17:47:17.416Z,37.33
2023-04-22T17:49:44.479Z,36.79
2023-04-22T17:52:11.621Z,36.54
2023-04-22T17:54:45.390Z,36.86
2023-04-22T17:57:12.652Z,36.61
2023-04-22T17:59:40.029Z,36.49
2023-04-22T18:02:07.397Z,36.81
2023-04-22T18:04:34.581Z,36.58
2023-04-22T18:07:01.449Z,36.69
2023-04-22T18:09:28.463Z,36.83
2023-04-22T18:11:58.728Z,36.55
2023-04-22T18:14:26.320Z,36.35
2023-04-22T18:16:53.375Z,36.58
2023-04-22T18:19:20.323Z,36.32
2023-04-22T18:21:59.082Z,36.39
2023-04-22T18:24:26.505Z,36.37
2023-04-22T18:26:53.837Z,35.98
2023-04-22T18:29:21.358Z,36.33
2023-04-22T18:31:48.481Z,36.05
2023-04-22T18:34:16.315Z,36.30
2023-04-22T18:36:43.279Z,35.95
2023-04-22T18:39:10.672Z,36.08
2023-04-22T18:41:38.996Z,35.91
2023-04-22T18:44:09.673Z,36.13
2023-04-22T18:46:37.067Z,36.02
2023-04-22T18:49:04.715Z,36.42
2023-04-22T18:51:31.868Z,35.93
2023-04-22T18:53:59.037Z,36.32
2023-04-22T18:56:26.074Z,36.36
2023-04-22T18:58:53.031Z,36.93
2023-04-22T19:01:22.355Z,36.52
2023-04-22T19:03:52.377Z,36.67
2023-04-22T19:06:19.383Z,36.56
2023-04-22T19:08:47.015Z,36.55
2023-04-22T19:11:13.935Z,36.61
2023-04-22T19:13:40.960Z,36.67
2023-04-22T19:16:08.112Z,36.70
2023-04-22T19:18:35.456Z,36.60
2023-04-22T19:21:03.290Z,36.88
2023-04-22T19:23:30.375Z,36.46
2023-04-22T19:25:57.279Z,36.83
2023-04-22T19:28:24.332Z,36.82
2023-04-22T19:30:51.573Z,36.45
2023-04-22T19:33:18.658Z,36.82
2023-04-22T19:35:46.279Z,36.75
2023-04-22T19:38:16.692Z,36.30
2023-04-22T19:40:43.643Z,36.49
2023-04-22T19:43:10.781Z,36.66
2023-04-22T19:45:37.841Z,36.38
2023-04-22T19:48:05.420Z,36.56
2023-04-22T19:50:34.798Z,36.50
2023-04-22T19:53:04.330Z,36.39
2023-04-22T19:55:32.529Z,36.45
2023-04-22T19:57:59.812Z,36.56
2023-04-22T20:00:26.904Z,36.45
2023-04-22T20:02:54.176Z,36.38
2023-04-22T20:05:22.664Z,36.44
2023-04-22T20:07:50.140Z,36.25
2023-04-22T20:10:17.419Z,36.25
2023-04-22T20:12:45.373Z,36.42
2023-04-22T20:15:12.795Z,36.43
2023-04-22T20:17:40.652Z,36.17
2023-04-22T20:20:13.261Z,36.35
2023-04-22T20:22:40.758Z,36.34
2023-04-22T20:25:08.588Z,36.46
2023-04-22T20:27:35.694Z,36.36
2023-04-22T20:30:02.743Z,36.52
2023-04-22T20:32:30.238Z,36.55
2023-04-22T20:34:57.672Z,36.58
2023-04-22T20:37:26.482Z,36.25
2023-04-22T20:39:53.685Z,36.46
2023-04-22T20:42:22.736Z,36.50
2023-04-22T20:44:49.764Z,36.83
2023-04-22T20:47:16.861Z,36.69
2023-04-22T20:49:44.424Z,36.85
2023-04-22T20:52:11.934Z,36.61
2023-04-22T20:54:39.632Z,36.70
2023-04-22T20:57:07.574Z,36.78
2023-04-22T20:59:35.199Z,36.61
2023-04-22T21:02:04.528Z,37.17
2023-04-22T21:04:32.303Z,37.17
2023-04-22T21:07:01.425Z,37.22
2023-04-22T21:09:28.456Z,37.13
2023-04-22T21:11:55.767Z,37.18
2023-04-22T21:14:26.546Z,36.98
2023-04-22T21:16:57.811Z,37.07
2023-04-22T21:19:25.148Z,37.20
2023-04-22T21:21:53.820Z,37.56
2023-04-22T21:24:21.657Z,37.26
2023-04-22T21:26:49.244Z,37.45
2023-04-22T21:29:16.911Z,37.44
2023-04-22T21:31:49.266Z,37.97
2023-04-22T21:34:24.910Z,37.97
2023-04-22T21:36:52.406Z,37.84
2023-04-22T21:39:19.482Z,38.29
2023-04-22T21:41:46.319Z,38.23
2023-04-22T21:44:13.293Z,38.37
2023-04-22T21:46:40.452Z,38.64
2023-04-22T21:49:07.457Z,38.47
2023-04-22T21:51:34.600Z,38.62
2023-04-22T21:54:01.521Z,38.54
2023-04-22T21:56:28.485Z,38.45
2023-04-22T21:58:56.064Z,38.51
2023-04-22T22:01:23.035Z,38.92
2023-04-22T22:03:50.151Z,38.87
2023-04-22T22:06:17.262Z,39.13
2023-04-22T22:08:46.321Z,38.81
2023-04-22T22:11:27.540Z,38.78
2023-04-22T22:13:57.677Z,39.12
2023-04-22T22:16:24.984Z,39.05
2023-04-22T22:18:52.261Z,39.25
2023-04-22T22:21:19.229Z,39.28
2023-04-22T22:23:46.221Z,39.37
2023-04-22T22:26:13.473Z,39.46
2023-04-22T22:28:40.541Z,39.24
2023-04-22T22:31:08.568Z,39.97
2023-04-22T22:33:35.845Z,39.73
2023-04-22T22:36:02.841Z,39.97
2023-04-22T22:38:30.011Z,39.71
2023-04-22T22:40:57.124Z,39.77
2023-04-22T22:43:24.060Z,39.97
2023-04-22T22:45:51.265Z,39.51
2023-04-22T22:48:18.543Z,39.73
2023-04-22T22:50:46.947Z,39.59
2023-04-22T22:53:13.916Z,39.78
2023-04-22T22:55:40.921Z,39.80
2023-04-22T22:58:07.798Z,39.45
2023-04-22T23:00:34.918Z,39.55
2023-04-22T23:03:02.161Z,39.83
2023-04-22T23:05:29.461Z,39.65
2023-04-22T23:07:56.433Z,39.82
2023-04-22T23:10:23.357Z,39.65
2023-04-22T23:12:50.358Z,40.01
2023-04-22T23:15:17.319Z,39.97
2023-04-22T23:17:44.543Z,39.80
2023-04-22T23:20:12.389Z,40.01
2023-04-22T23:22:41.032Z,40.10
2023-04-22T23:25:08.891Z,39.99
2023-04-22T23:27:36.180Z,40.41
2023-04-22T23:30:04.226Z,40.78
2023-04-22T23:32:35.408Z,40.68
2023-04-22T23:35:03.003Z,40.57
2023-04-22T23:37:30.045Z,40.73
2023-04-22T23:39:56.939Z,40.76
2023-04-22T23:42:23.889Z,40.97
2023-04-22T23:44:50.935Z,40.72
2023-04-22T23:47:18.126Z,40.99
2023-04-22T23:49:45.024Z,40.64
2023-04-22T23:52:13.247Z,40.69
2023-04-22T23:54:41.066Z,40.60
2023-04-22T23:57:08.720Z,40.93
2023-04-22T23:59:36.040Z,41.04
